Airfield :
LOGIN :

Register | Disclaimer

   EN    FR    IT 

 










Legend :    VFR   Marginal VFR   IFR   Intensive IFR   Very Intensive IFR
Visi :
Ceiling :
>= 8 km
>= 3000ft
5 to 8 km
1000 to 3000 ft
1500m to 5 km
500 to 1000 ft
800 to 1500m
200 to 500 ft
< 800m
< 200 ft
Symbols :   Thunderstorms  Fog  Heavy snow  Heavy precipitations  Wind > 20 kt
SIGMETs :     Misc.  Thunderstorms  Icing  Turbulence  Mountain Waves  Volcanic Ashes






- Airport Elevation : 614 ft
- IATA code : CRL


EBCI - Charleroi

CURRENT METAR :
  • 111520Z 04005KT 350V090 CAVOK 33/14 Q1014 NOSIG

EXPIRED METARs :
  • 111450Z VRB02KT CAVOK 32/15 Q1014 NOSIG
  • 111420Z 34004KT 260V030 CAVOK 32/14 Q1014 NOSIG
  • 111350Z 36007KT 310V040 CAVOK 32/15 Q1015 NOSIG
  • 111320Z 02006KT 310V080 CAVOK 32/16 Q1015 NOSIG
  • 111250Z 05004KT 330V110 CAVOK 32/17 Q1015 NOSIG

TAF TAF EBCI
Valid from the 11 at 12:00 until the 12 at 18:00 UTC


111110Z 1112/1218 04006KT CAVOK
PROB40
TEMPO 1212/1220 VRB18G35KT 3000 TSRA



MET'MAP, your aeronautical weather chart ! - Copyright ORBIFLY December 2007 - Disclaimer

ORBIFLY MET'MAP TEAM :

Programming & Development : Alexandra Zaïnal
Concept & original design : Baudouin d'Aumeries
Assistance for programming : Marc-Olivier Méhu
Technical & hardware support : Manuel Goepfert

Contact : metmap@orbifly.com




SOURCES & CREDITS :

   NOAA